Arlington Heights, IL

2:51 AM CDT on April 02, 2015 (GMT -0500)
Arlington Heights Historical District | | Change Station
CLOSE
Current Station
Personal Weather Station
Location: Arlington Heights, IL
Elevation: 722 ft
Nearby Weather Stations

Elev 722 ft 42.09 °N, 87.99 °W | Updated 51 seconds ago

Clear
Clear
59.2 °F
Feels Like 59.2 °F
N
0.0
Wind Variable Wind from East
Gusts 0.0 mph

Today
High -- | Low -- °F
--% Chance of Precip.
Yesterday
High -- | Low -- °F
Precip. -- in
6:33 AM 7:18 PM
Waxing Gibbous, 96% visible
Pressure 29.80 in
Visibility 10.0 miles
Clouds Mostly Cloudy 5500 ft
Dew Point 34 °F
Humidity 38%
Rainfall 0.00 in
Snow Depth Not available.
UV 0 out of 12
Pollen 7.30 out of 12
Air Quality Not available.
Flu Activity Not available.
METAR KPWK 020652Z AUTO 19018G25KT 10SM BKN055 15/01 A2980 RMK AO2 SLP089 T01500011

More Conditions Fewer Conditions

Pressure 29.80 in
Visibility 10.0 miles
Clouds Mostly Cloudy 5500 ft
Dew Point 34 °F
Humidity 38%
Rainfall 0.00 in
Snow Depth Not available.
UV 0 out of 12
Pollen 7.30 out of 12
Air Quality Not available.
Flu Activity Not available.
METAR KPWK 020652Z AUTO 19018G25KT 10SM BKN055 15/01 A2980 RMK AO2 SLP089 T01500011

More Conditions Fewer Conditions

10-Day Weather Forecast

Almanac

Astronomy

Apr. 02, 2015 Rise Set
Actual Time
Civil Twilight
Nautical Twilight
Astronomical Twilight
Moon
Length of Visible Light
Length of Day
Tomorrow will be .
, % of the Moon is Illuminated

Today's Extremes

State Highs State Lows

Community

WunderPhotos

Upload Photos

1,810,206 photos uploaded!

WunderBlogs® & News

Nearby

Air Quality

  Air Quality AQ Index Pollutant
Not available.

Snow Depth

Station Depth Elevation

Earthquake Activity

City Distance Mag. Time & Date
Minimum magnitude displayed is 2.5.

Coastal Water Temperatures

Place Temperature

Stations

Nearby Weather Stations

Station Location Temp. Windchill Dew Point Humidity Wind Precip. Elev Updated Type